createdAt,value
2023-09-23T00:00:15.057Z,95067.63
2023-09-23T00:02:45.644Z,95061.66
2023-09-23T00:05:13.292Z,95065.06
2023-09-23T00:07:41.344Z,95071.03
2023-09-23T00:10:09.651Z,95062.00
2023-09-23T00:12:37.344Z,95073.56
2023-09-23T00:15:06.497Z,95070.41
2023-09-23T00:17:33.807Z,95071.84
2023-09-23T00:20:01.919Z,95062.53
2023-09-23T00:22:28.590Z,95067.16
2023-09-23T00:24:55.540Z,95066.69
2023-09-23T00:27:23.100Z,95026.34
2023-09-23T00:29:50.452Z,95062.09
2023-09-23T00:32:18.834Z,95065.94
2023-09-23T00:34:45.559Z,95060.38
2023-09-23T00:37:12.386Z,95059.59
2023-09-23T00:39:43.631Z,95056.81
2023-09-23T00:42:13.541Z,95061.72
2023-09-23T00:44:43.044Z,95054.19
2023-09-23T00:47:11.233Z,95063.13
2023-09-23T00:49:43.240Z,95062.06
2023-09-23T00:52:10.100Z,95061.53
2023-09-23T00:54:37.374Z,95067.03
2023-09-23T00:57:07.570Z,95063.69
2023-09-23T00:59:37.832Z,95060.53
2023-09-23T01:02:06.291Z,95055.81
2023-09-23T01:04:34.924Z,95059.84
2023-09-23T01:07:10.667Z,95062.63
2023-09-23T01:09:38.562Z,95054.56
2023-09-23T01:12:05.878Z,95064.56
2023-09-23T01:14:32.950Z,95056.09
2023-09-23T01:16:59.878Z,95060.94
2023-09-23T01:19:28.053Z,95054.38
2023-09-23T01:21:57.538Z,95052.06
2023-09-23T01:24:25.329Z,95061.81
2023-09-23T01:26:52.253Z,95043.56
2023-09-23T01:29:23.489Z,95057.78
2023-09-23T01:32:21.283Z,95058.22
2023-09-23T01:34:47.931Z,95054.09
2023-09-23T01:37:14.559Z,95051.56
2023-09-23T01:39:42.468Z,95049.22
2023-09-23T01:42:09.262Z,95039.50
2023-09-23T01:44:35.994Z,95048.97
2023-09-23T01:47:02.769Z,95048.47
2023-09-23T01:49:29.438Z,95044.81
2023-09-23T01:51:56.215Z,95053.47
2023-09-23T01:54:23.033Z,95055.72
2023-09-23T01:56:49.920Z,95050.16
2023-09-23T01:59:16.585Z,95058.16
2023-09-23T02:01:45.258Z,95064.19
2023-09-23T02:04:12.340Z,95057.31
2023-09-23T02:06:39.947Z,95065.69
2023-09-23T02:09:06.586Z,95039.44
2023-09-23T02:11:33.223Z,95059.00
2023-09-23T02:13:59.932Z,95055.56
2023-09-23T02:16:26.643Z,95068.84
2023-09-23T02:18:53.280Z,95068.88
2023-09-23T02:21:20.476Z,95074.88
2023-09-23T02:23:47.753Z,95077.16
2023-09-23T02:26:14.381Z,95065.88
2023-09-23T02:28:41.667Z,95071.41
2023-09-23T02:31:09.011Z,95080.69
2023-09-23T02:33:35.668Z,95073.66
2023-09-23T02:36:02.271Z,95082.94
2023-09-23T02:38:29.172Z,95079.44
2023-09-23T02:41:01.587Z,95081.94
2023-09-23T02:43:28.196Z,95096.78
2023-09-23T02:45:57.630Z,95080.97
2023-09-23T02:48:25.563Z,95092.00
2023-09-23T02:50:52.215Z,95087.50
2023-09-23T02:53:18.993Z,95088.50
2023-09-23T02:55:53.263Z,95078.50
2023-09-23T02:58:20.001Z,95100.78
2023-09-23T03:00:58.661Z,95092.78
2023-09-23T03:03:25.908Z,95071.31
2023-09-23T03:05:56.713Z,95097.09
2023-09-23T03:08:26.405Z,95097.84
2023-09-23T03:10:53.409Z,95089.59
2023-09-23T03:13:20.305Z,95091.09
2023-09-23T03:15:54.617Z,95092.84
2023-09-23T03:18:35.315Z,95092.38
2023-09-23T03:21:10.022Z,95094.63
2023-09-23T03:23:43.294Z,95109.94
2023-09-23T03:26:11.146Z,95109.41
2023-09-23T03:28:40.073Z,95097.91
2023-09-23T03:31:10.427Z,95098.69
2023-09-23T03:33:38.391Z,95100.94
2023-09-23T03:36:11.007Z,95102.16
2023-09-23T03:38:38.895Z,95089.88
2023-09-23T03:41:05.602Z,95094.63
2023-09-23T03:43:32.297Z,95086.38
2023-09-23T03:45:59.098Z,95101.63
2023-09-23T03:48:26.996Z,95100.88
2023-09-23T03:50:54.296Z,95108.66
2023-09-23T03:53:25.074Z,95097.63
2023-09-23T03:55:56.493Z,95105.13
2023-09-23T03:58:23.746Z,95108.88
2023-09-23T04:00:50.883Z,95114.41
2023-09-23T04:03:19.545Z,95114.19
2023-09-23T04:05:55.266Z,95119.19
2023-09-23T04:08:22.008Z,95111.19
2023-09-23T04:10:48.765Z,95122.72
2023-09-23T04:13:15.752Z,95118.19
2023-09-23T04:15:43.211Z,95140.78
2023-09-23T04:18:10.634Z,95129.75
2023-09-23T04:20:37.534Z,95131.75
2023-09-23T04:23:04.625Z,95143.50
2023-09-23T04:25:31.744Z,95135.25
2023-09-23T04:27:58.420Z,95126.22
2023-09-23T04:30:27.290Z,95135.25
2023-09-23T04:32:56.678Z,95156.78
2023-09-23T04:35:23.561Z,95142.97
2023-09-23T04:37:50.675Z,95154.00
2023-09-23T04:40:19.453Z,95155.53
2023-09-23T04:42:46.155Z,95164.28
2023-09-23T04:45:13.260Z,95170.81
2023-09-23T04:47:41.574Z,95173.31
2023-09-23T04:50:13.443Z,95171.28
2023-09-23T04:52:42.157Z,95175.03
2023-09-23T04:55:09.368Z,95166.50
2023-09-23T04:57:37.321Z,95162.75
2023-09-23T05:00:06.076Z,95168.78
2023-09-23T05:02:33.006Z,95169.22
2023-09-23T05:04:59.958Z,95168.94
2023-09-23T05:07:27.012Z,95171.81
2023-09-23T05:09:56.922Z,95162.19
2023-09-23T05:12:24.965Z,95171.44
2023-09-23T05:14:54.083Z,95170.53
2023-09-23T05:17:23.114Z,95160.63
2023-09-23T05:19:49.960Z,95172.56
2023-09-23T05:22:17.854Z,95178.47
2023-09-23T05:24:48.816Z,95179.88
2023-09-23T05:27:16.046Z,95192.13
2023-09-23T05:29:44.644Z,95179.63
2023-09-23T05:32:12.094Z,95185.56
2023-09-23T05:34:43.212Z,95184.25
2023-09-23T05:37:12.739Z,95186.66
2023-09-23T05:39:46.046Z,95191.59
2023-09-23T05:42:17.153Z,95188.22
2023-09-23T05:44:45.413Z,95190.53
2023-09-23T05:47:12.306Z,95187.13
2023-09-23T05:49:40.093Z,95204.13
2023-09-23T05:52:07.437Z,95202.75
2023-09-23T05:54:34.749Z,95195.81
2023-09-23T05:57:01.637Z,95199.97
2023-09-23T05:59:28.258Z,95201.97
2023-09-23T06:01:55.349Z,95202.16
2023-09-23T06:04:22.123Z,95204.41
2023-09-23T06:06:48.752Z,95205.41
2023-09-23T06:09:16.383Z,95202.28
2023-09-23T06:11:44.643Z,95219.16
2023-09-23T06:14:13.013Z,95218.13
2023-09-23T06:16:39.948Z,95210.09
2023-09-23T06:19:08.125Z,95208.56
2023-09-23T06:21:36.297Z,95224.38
2023-09-23T06:24:03.888Z,95223.50
2023-09-23T06:26:31.347Z,95212.19
2023-09-23T06:28:58.111Z,95207.34
2023-09-23T06:31:25.114Z,95213.34
2023-09-23T06:33:51.765Z,95216.69
2023-09-23T06:36:18.378Z,95221.41
2023-09-23T06:38:45.103Z,95224.72
2023-09-23T06:41:11.763Z,95234.03
2023-09-23T06:43:38.482Z,95234.53
2023-09-23T06:46:05.141Z,95238.97
2023-09-23T06:48:31.920Z,95230.47
2023-09-23T06:51:03.883Z,95233.84
2023-09-23T06:53:31.793Z,95237.53
2023-09-23T06:55:58.542Z,95222.31
2023-09-23T06:58:25.194Z,95226.50
2023-09-23T07:00:51.942Z,95248.53
2023-09-23T07:03:18.842Z,95238.69
2023-09-23T07:05:45.872Z,95241.38
2023-09-23T07:08:12.918Z,95246.88
2023-09-23T07:10:40.818Z,95233.09
2023-09-23T07:13:09.324Z,95248.06
2023-09-23T07:15:39.741Z,95247.03
2023-09-23T07:18:07.158Z,95243.16
2023-09-23T07:20:34.801Z,95251.34
2023-09-23T07:23:02.277Z,95245.63
2023-09-23T07:25:29.201Z,95239.53
2023-09-23T07:27:56.006Z,95240.03
2023-09-23T07:30:22.751Z,95251.41
2023-09-23T07:32:49.481Z,95248.00
2023-09-23T07:35:16.692Z,95242.78
2023-09-23T07:37:43.475Z,95247.28
2023-09-23T07:40:10.612Z,95249.13
2023-09-23T07:42:37.339Z,95243.88
2023-09-23T07:45:04.391Z,95233.81
2023-09-23T07:47:31.162Z,95240.53
2023-09-23T07:49:59.286Z,95235.47
2023-09-23T07:52:25.944Z,95234.38
2023-09-23T07:54:52.604Z,95234.78
2023-09-23T07:57:19.286Z,95243.94
2023-09-23T07:59:46.657Z,95247.47
2023-09-23T08:02:13.322Z,95226.81
2023-09-23T08:04:40.107Z,95224.75
2023-09-23T08:07:07.702Z,95232.00
2023-09-23T08:09:34.427Z,95234.44
2023-09-23T08:12:01.098Z,95230.53
2023-09-23T08:14:28.014Z,95232.53
2023-09-23T08:16:55.808Z,95226.91
2023-09-23T08:19:22.622Z,95220.16
2023-09-23T08:21:49.222Z,95225.44
2023-09-23T08:24:16.123Z,95212.16
2023-09-23T08:26:43.053Z,95213.25
2023-09-23T08:29:10.933Z,95215.31
2023-09-23T08:31:38.179Z,95210.31
2023-09-23T08:34:10.324Z,95210.13
2023-09-23T08:36:37.909Z,95212.88
2023-09-23T08:39:10.812Z,95208.94
2023-09-23T08:41:37.665Z,95209.09
2023-09-23T08:44:05.968Z,95210.75
2023-09-23T08:46:33.176Z,95221.19
2023-09-23T08:49:00.894Z,95192.22
2023-09-23T08:51:28.858Z,95200.97
2023-09-23T08:53:56.609Z,95195.34
2023-09-23T08:56:23.548Z,95191.69
2023-09-23T08:58:50.678Z,95187.56
2023-09-23T09:01:18.433Z,95194.81
2023-09-23T09:03:45.972Z,95194.91
2023-09-23T09:06:30.738Z,95199.03
2023-09-23T09:08:57.684Z,95189.16
2023-09-23T09:11:25.390Z,95181.75
2023-09-23T09:13:52.410Z,95180.09
2023-09-23T09:16:20.322Z,95186.22
2023-09-23T09:18:51.636Z,95182.00
2023-09-23T09:21:18.320Z,95176.97
2023-09-23T09:23:44.979Z,95164.91
2023-09-23T09:26:11.794Z,95187.78
2023-09-23T09:28:38.958Z,95182.72
2023-09-23T09:31:10.974Z,95178.63
2023-09-23T09:33:39.234Z,95167.66
2023-09-23T09:36:08.966Z,95158.31
2023-09-23T09:38:38.308Z,95154.47
2023-09-23T09:41:07.146Z,95163.50
2023-09-23T09:43:34.886Z,95158.03
2023-09-23T09:46:10.194Z,95162.41
2023-09-23T09:48:42.999Z,95164.28
2023-09-23T09:51:14.781Z,95146.38
2023-09-23T09:53:42.623Z,95147.97
2023-09-23T09:56:10.314Z,95142.63
2023-09-23T09:58:42.114Z,95139.69
2023-09-23T10:01:14.492Z,95141.09
2023-09-23T10:03:44.432Z,95130.47
2023-09-23T10:06:20.152Z,95124.94
2023-09-23T10:08:49.872Z,95123.22
2023-09-23T10:11:17.880Z,95118.53
2023-09-23T10:13:45.085Z,95111.72
2023-09-23T10:16:13.892Z,95109.22
2023-09-23T10:18:42.466Z,95109.94
2023-09-23T10:21:21.756Z,95102.28
2023-09-23T10:23:50.742Z,95101.97
2023-09-23T10:26:20.385Z,95105.25
2023-09-23T10:29:00.684Z,95104.78
2023-09-23T10:31:28.972Z,95104.91
2023-09-23T10:33:56.642Z,95102.13
2023-09-23T10:36:24.116Z,95093.97
2023-09-23T10:38:51.423Z,95092.78
2023-09-23T10:41:19.396Z,95088.44
2023-09-23T10:43:55.146Z,95087.81
2023-09-23T10:46:21.990Z,95075.06
2023-09-23T10:48:49.023Z,95074.81
2023-09-23T10:51:15.932Z,95078.47
2023-09-23T10:53:43.337Z,95046.44
2023-09-23T10:56:12.090Z,95052.19
2023-09-23T10:58:39.956Z,95051.56
2023-09-23T11:01:08.055Z,95051.81
2023-09-23T11:03:42.329Z,95055.88
2023-09-23T11:06:09.744Z,95046.31
2023-09-23T11:08:37.499Z,95044.34
2023-09-23T11:11:04.398Z,95040.06
2023-09-23T11:13:34.899Z,95030.34
2023-09-23T11:16:10.213Z,95026.22
2023-09-23T11:18:38.707Z,95026.00
2023-09-23T11:21:06.181Z,95012.50
2023-09-23T11:23:34.169Z,95011.19
2023-09-23T11:26:01.012Z,95009.38
2023-09-23T11:28:28.841Z,95007.91
2023-09-23T11:30:57.441Z,95012.38
2023-09-23T11:33:24.479Z,95004.13
2023-09-23T11:35:51.213Z,94997.84
2023-09-23T11:38:19.979Z,95006.59
2023-09-23T11:40:47.911Z,95002.97
2023-09-23T11:43:14.612Z,94981.44
2023-09-23T11:45:42.511Z,94981.34
2023-09-23T11:48:09.606Z,94982.63
2023-09-23T11:50:37.454Z,94970.00
2023-09-23T11:53:04.777Z,94971.50
2023-09-23T11:55:33.765Z,94969.53
2023-09-23T11:58:01.347Z,94958.03
2023-09-23T12:00:28.092Z,94959.44
2023-09-23T12:02:55.033Z,94955.78
2023-09-23T12:05:22.620Z,94954.03
2023-09-23T12:07:49.437Z,94951.31
2023-09-23T12:10:16.313Z,94948.84
2023-09-23T12:12:46.694Z,94943.84
2023-09-23T12:15:13.512Z,94948.75
2023-09-23T12:17:40.326Z,94951.06
2023-09-23T12:20:13.091Z,94943.44
2023-09-23T12:22:40.327Z,94940.47
2023-09-23T12:25:08.021Z,94927.44
2023-09-23T12:27:35.195Z,94932.19
2023-09-23T12:30:02.185Z,94915.88
2023-09-23T12:32:29.966Z,94927.16
2023-09-23T12:35:00.432Z,94935.34
2023-09-23T12:37:28.599Z,94931.97
2023-09-23T12:39:57.036Z,94921.69
2023-09-23T12:42:24.064Z,94921.97
2023-09-23T12:44:50.697Z,94924.03
2023-09-23T12:47:17.421Z,94920.25
2023-09-23T12:49:44.976Z,94918.13
2023-09-23T12:52:12.660Z,94920.31
2023-09-23T12:54:39.487Z,94923.34
2023-09-23T12:57:06.176Z,94922.00
2023-09-23T12:59:33.165Z,94923.59
2023-09-23T13:01:59.875Z,94908.13
2023-09-23T13:04:26.625Z,94914.88
2023-09-23T13:06:53.348Z,94911.09
2023-09-23T13:09:20.169Z,94916.91
2023-09-23T13:11:46.806Z,94900.09
2023-09-23T13:14:13.673Z,94907.69
2023-09-23T13:16:40.363Z,94901.72
2023-09-23T13:19:07.027Z,94898.31
2023-09-23T13:21:33.829Z,94904.66
2023-09-23T13:24:01.440Z,94906.72
2023-09-23T13:26:28.193Z,94895.81
2023-09-23T13:28:55.003Z,94896.34
2023-09-23T13:31:21.835Z,94889.66
2023-09-23T13:33:49.913Z,94895.22
2023-09-23T13:36:16.718Z,94885.66
2023-09-23T13:38:43.619Z,94892.31
2023-09-23T13:41:10.510Z,94884.09
2023-09-23T13:43:37.151Z,94893.66
2023-09-23T13:46:03.977Z,94878.97
2023-09-23T13:48:30.927Z,94885.38
2023-09-23T13:50:57.688Z,94884.03
2023-09-23T13:53:24.312Z,94879.06
2023-09-23T13:55:51.022Z,94877.91
2023-09-23T13:58:17.891Z,94882.19
2023-09-23T14:00:44.631Z,94876.97
2023-09-23T14:03:11.288Z,94872.16
2023-09-23T14:05:38.044Z,94870.75
2023-09-23T14:08:05.108Z,94873.47
2023-09-23T14:10:32.093Z,94866.28
2023-09-23T14:12:58.741Z,94868.84
2023-09-23T14:15:26.579Z,94873.19
2023-09-23T14:17:53.297Z,94863.91
2023-09-23T14:20:20.111Z,94867.84
2023-09-23T14:22:49.370Z,94855.88
2023-09-23T14:25:18.437Z,94857.66
2023-09-23T14:27:45.152Z,94860.06
2023-09-23T14:30:12.511Z,94843.31
2023-09-23T14:32:39.669Z,94858.78
2023-09-23T14:35:06.923Z,94853.63
2023-09-23T14:37:34.510Z,94862.25
2023-09-23T14:40:01.726Z,94856.13
2023-09-23T14:42:28.728Z,94848.88
2023-09-23T14:44:55.392Z,94854.84
2023-09-23T14:47:22.277Z,94848.06
2023-09-23T14:49:49.012Z,94838.72
2023-09-23T14:52:15.722Z,94849.00
2023-09-23T14:54:42.942Z,94850.72
2023-09-23T14:57:09.722Z,94846.66
2023-09-23T14:59:37.120Z,94854.00
2023-09-23T15:02:05.074Z,94843.50
2023-09-23T15:04:32.114Z,94848.97
2023-09-23T15:07:00.868Z,94837.44
2023-09-23T15:09:28.157Z,94850.19
2023-09-23T15:11:55.298Z,94843.34
2023-09-23T15:14:22.160Z,94839.41
2023-09-23T15:16:51.491Z,94840.41
2023-09-23T15:19:21.309Z,94850.56
2023-09-23T15:21:48.068Z,94845.34
2023-09-23T15:24:18.204Z,94841.88
2023-09-23T15:26:45.341Z,94845.66
2023-09-23T15:29:12.380Z,94843.09
2023-09-23T15:31:39.100Z,94837.09
2023-09-23T15:34:06.504Z,94843.84
2023-09-23T15:36:33.464Z,94850.69
2023-09-23T15:39:00.427Z,94847.75
2023-09-23T15:41:27.258Z,94840.25
2023-09-23T15:43:53.991Z,94839.47
2023-09-23T15:46:20.681Z,94843.91
2023-09-23T15:48:47.534Z,94851.69
2023-09-23T15:51:17.848Z,94847.16
2023-09-23T15:53:45.698Z,94850.91
2023-09-23T15:56:13.250Z,94838.09
2023-09-23T15:58:40.666Z,94834.53
2023-09-23T16:01:07.851Z,94850.69
2023-09-23T16:03:35.290Z,94845.13
2023-09-23T16:06:02.521Z,94834.56
2023-09-23T16:08:30.041Z,94835.06
2023-09-23T16:10:56.790Z,94841.03
2023-09-23T16:13:23.584Z,94838.97
2023-09-23T16:15:50.286Z,94831.00
2023-09-23T16:18:19.976Z,94835.91
2023-09-23T16:20:48.735Z,94836.03
2023-09-23T16:23:15.505Z,94844.78
2023-09-23T16:25:42.267Z,94831.75
2023-09-23T16:28:08.925Z,94837.06
2023-09-23T16:30:35.655Z,94845.63
2023-09-23T16:33:02.689Z,94836.75
2023-09-23T16:35:29.508Z,94841.19
2023-09-23T16:37:56.275Z,94836.13
2023-09-23T16:40:22.963Z,94844.06
2023-09-23T16:42:49.728Z,94835.47
2023-09-23T16:45:16.554Z,94845.22
2023-09-23T16:47:45.136Z,94845.03
2023-09-23T16:50:12.221Z,94839.69
2023-09-23T16:52:39.062Z,94843.09
2023-09-23T16:55:06.027Z,94842.53
2023-09-23T16:57:32.885Z,94853.75
2023-09-23T16:59:59.574Z,94852.69
2023-09-23T17:02:26.722Z,94854.44
2023-09-23T17:04:53.885Z,94849.28
2023-09-23T17:07:20.581Z,94847.47
2023-09-23T17:09:47.465Z,94853.06
2023-09-23T17:12:14.396Z,94852.28
2023-09-23T17:14:41.276Z,94865.59
2023-09-23T17:17:08.673Z,94871.13
2023-09-23T17:19:35.878Z,94867.09
2023-09-23T17:22:02.603Z,94882.63
2023-09-23T17:24:30.562Z,94890.94
2023-09-23T17:26:57.593Z,94885.28
2023-09-23T17:29:24.500Z,94885.38
2023-09-23T17:31:51.399Z,94894.09
2023-09-23T17:34:18.334Z,94897.78
2023-09-23T17:36:45.023Z,94886.16
2023-09-23T17:39:12.142Z,94905.97
2023-09-23T17:41:39.603Z,94892.56
2023-09-23T17:44:07.230Z,94906.09
2023-09-23T17:46:34.517Z,94901.81
2023-09-23T17:49:01.273Z,94911.34
2023-09-23T17:51:28.238Z,94917.59
2023-09-23T17:53:54.945Z,94905.81
2023-09-23T17:56:23.328Z,94922.13
2023-09-23T17:58:50.336Z,94916.38
2023-09-23T18:01:17.393Z,94914.72
2023-09-23T18:03:44.495Z,94921.06
2023-09-23T18:06:11.427Z,94917.69
2023-09-23T18:08:38.240Z,94920.72
2023-09-23T18:11:05.023Z,94923.34
2023-09-23T18:13:32.382Z,94915.16
2023-09-23T18:15:59.066Z,94920.88
2023-09-23T18:18:27.881Z,94919.22
2023-09-23T18:20:56.005Z,94932.31
2023-09-23T18:23:22.813Z,94942.41
2023-09-23T18:25:50.000Z,94945.19
2023-09-23T18:28:16.720Z,94943.72
2023-09-23T18:30:43.399Z,94943.53
2023-09-23T18:33:10.236Z,94949.09
2023-09-23T18:35:37.557Z,94945.03
2023-09-23T18:38:04.430Z,94944.25
2023-09-23T18:40:31.425Z,94940.06
2023-09-23T18:42:58.056Z,94936.81
2023-09-23T18:45:24.959Z,94915.34
2023-09-23T18:48:00.632Z,94919.66
2023-09-23T18:50:34.743Z,94901.00
2023-09-23T18:53:01.526Z,94888.19
2023-09-23T18:55:28.513Z,94891.25
2023-09-23T18:57:55.280Z,94909.63
2023-09-23T19:00:22.269Z,94911.16
2023-09-23T19:02:49.201Z,94896.88
2023-09-23T19:05:16.561Z,94896.88
2023-09-23T19:07:43.276Z,94898.78
2023-09-23T19:10:12.052Z,94891.31
2023-09-23T19:12:39.184Z,94873.06
2023-09-23T19:15:07.292Z,94884.53
2023-09-23T19:17:34.205Z,94872.88
2023-09-23T19:20:01.122Z,94887.16
2023-09-23T19:22:27.928Z,94892.78
2023-09-23T19:24:55.142Z,94892.06
2023-09-23T19:27:21.983Z,94892.50
2023-09-23T19:29:51.073Z,94887.38
2023-09-23T19:32:18.024Z,94883.84
2023-09-23T19:34:44.902Z,94893.69
2023-09-23T19:37:11.588Z,94880.72
2023-09-23T19:39:38.495Z,94890.06
2023-09-23T19:42:05.826Z,94870.16
2023-09-23T19:44:33.171Z,94883.03
2023-09-23T19:47:02.065Z,94887.69
2023-09-23T19:49:29.248Z,94885.28
2023-09-23T19:51:56.493Z,94894.41
2023-09-23T19:54:24.124Z,94890.88
2023-09-23T19:56:51.059Z,94885.13
2023-09-23T19:59:21.031Z,94880.84
2023-09-23T20:01:48.309Z,94881.22
2023-09-23T20:04:15.334Z,94889.56
2023-09-23T20:06:42.671Z,94887.91
2023-09-23T20:09:10.579Z,94871.75
2023-09-23T20:11:37.470Z,94875.06
2023-09-23T20:14:04.218Z,94877.13
2023-09-23T20:16:32.990Z,94879.72
2023-09-23T20:19:00.368Z,94883.66
2023-09-23T20:21:27.499Z,94884.38
2023-09-23T20:23:54.323Z,94901.84
2023-09-23T20:26:22.317Z,94884.78
2023-09-23T20:28:49.329Z,94890.13
2023-09-23T20:31:16.703Z,94896.47
2023-09-23T20:33:44.151Z,94890.88
2023-09-23T20:36:10.936Z,94898.88
2023-09-23T20:38:40.290Z,94896.84
2023-09-23T20:41:07.813Z,94889.97
2023-09-23T20:43:38.915Z,94890.88
2023-09-23T20:46:12.494Z,94878.81
2023-09-23T20:48:39.425Z,94892.00
2023-09-23T20:51:06.190Z,94893.13
2023-09-23T20:53:35.709Z,94883.03
2023-09-23T20:56:06.724Z,94899.31
2023-09-23T20:58:34.350Z,94890.59
2023-09-23T21:01:01.959Z,94885.59
2023-09-23T21:03:28.736Z,94899.31
2023-09-23T21:05:55.910Z,94900.63
2023-09-23T21:08:22.852Z,94896.34
2023-09-23T21:10:49.645Z,94893.94
2023-09-23T21:13:16.293Z,94880.56
2023-09-23T21:15:43.180Z,94893.75
2023-09-23T21:18:10.937Z,94901.91
2023-09-23T21:20:38.498Z,94884.06
2023-09-23T21:23:05.414Z,94902.84
2023-09-23T21:25:32.342Z,94892.44
2023-09-23T21:27:59.270Z,94884.44
2023-09-23T21:30:26.174Z,94890.34
2023-09-23T21:32:52.910Z,94887.38
2023-09-23T21:35:19.660Z,94883.63
2023-09-23T21:37:46.337Z,94881.31
2023-09-23T21:40:12.996Z,94877.22
2023-09-23T21:42:39.642Z,94863.09
2023-09-23T21:45:06.898Z,94858.88
2023-09-23T21:47:33.628Z,94856.75
2023-09-23T21:50:00.346Z,94856.03
2023-09-23T21:52:27.285Z,94849.97
2023-09-23T21:54:53.946Z,94841.66
2023-09-23T21:57:20.724Z,94842.59
2023-09-23T21:59:47.494Z,94832.78
2023-09-23T22:02:14.416Z,94836.69
2023-09-23T22:04:41.246Z,94838.97
2023-09-23T22:07:07.961Z,94838.94
2023-09-23T22:09:34.609Z,94847.09
2023-09-23T22:12:01.297Z,94835.22
2023-09-23T22:14:28.068Z,94832.97
2023-09-23T22:16:57.548Z,94822.19
2023-09-23T22:19:24.795Z,94819.75
2023-09-23T22:21:52.645Z,94829.34
2023-09-23T22:24:22.654Z,94817.03
2023-09-23T22:26:54.503Z,94811.44
2023-09-23T22:29:21.589Z,94800.88
2023-09-23T22:31:48.633Z,94800.41
2023-09-23T22:34:15.373Z,94790.66
2023-09-23T22:36:42.754Z,94802.66
2023-09-23T22:39:13.363Z,94802.38
2023-09-23T22:41:40.614Z,94809.75
2023-09-23T22:44:07.923Z,94810.09
2023-09-23T22:46:34.809Z,94803.66
2023-09-23T22:49:01.430Z,94801.03
2023-09-23T22:51:29.335Z,94805.03
2023-09-23T22:53:57.040Z,94802.44
2023-09-23T22:56:24.363Z,94798.75
2023-09-23T22:58:52.175Z,94803.06
2023-09-23T23:01:19.700Z,94783.44
2023-09-23T23:03:46.842Z,94809.09
2023-09-23T23:06:13.856Z,94798.66
2023-09-23T23:08:40.609Z,94800.41
2023-09-23T23:11:08.762Z,94813.28
2023-09-23T23:13:38.598Z,94802.19
2023-09-23T23:16:10.037Z,94812.00
2023-09-23T23:18:36.899Z,94801.00
2023-09-23T23:21:04.786Z,94810.72
2023-09-23T23:23:32.385Z,94804.00
2023-09-23T23:26:00.510Z,94805.59
2023-09-23T23:28:28.465Z,94806.66
2023-09-23T23:30:55.341Z,94801.06
2023-09-23T23:33:22.489Z,94805.78
2023-09-23T23:35:49.494Z,94805.13
2023-09-23T23:38:16.297Z,94809.06
2023-09-23T23:40:43.173Z,94817.25
2023-09-23T23:43:10.628Z,94804.31
2023-09-23T23:45:37.406Z,94811.13
2023-09-23T23:48:04.575Z,94814.13
2023-09-23T23:50:31.764Z,94808.06
2023-09-23T23:52:58.449Z,94799.75
2023-09-23T23:55:26.745Z,94804.63
2023-09-23T23:57:53.646Z,94809.75
